Time;durP1;ratioP1;P1;durP2;ratioP2;P2;SDS_P1;SDS_P2;PMS_P1;PMS_P2;Temp;Humidity;BMP_temperature;BMP_pressure;BME280_temperature;BME280_humidity;BME280_pressure;Samples;Min_cycle;Max_cycle;Signal;HPM_P1;HPM_P2
2021/10/04 00:01:04;;;;;;;18.50;10.88;;;;;;;7.81;100.00;98246.44;5061064;28;20028;-75
2021/10/04 00:03:30;;;;;;;19.55;11.60;;;;;;;7.87;100.00;98245.34;5061653;28;20028;-76
2021/10/04 00:05:55;;;;;;;18.63;10.93;;;;;;;7.82;100.00;98240.19;5096260;28;20031;-75
2021/10/04 00:08:21;;;;;;;21.73;11.70;;;;;;;7.69;100.00;98225.59;5097778;28;20020;-75
2021/10/04 00:11:00;;;;;;;23.98;13.18;;;;;;;7.69;100.00;98230.94;5099583;28;20032;-75
2021/10/04 00:13:25;;;;;;;26.27;12.30;;;;;;;7.71;100.00;98239.75;5086258;28;20029;-75
2021/10/04 00:15:51;;;;;;;20.58;11.85;;;;;;;7.68;100.00;98250.53;5077683;28;20103;-76
2021/10/04 00:18:17;;;;;;;19.27;11.73;;;;;;;7.58;100.00;98227.84;5082053;28;20028;-76
2021/10/04 00:20:42;;;;;;;24.73;11.65;;;;;;;7.45;100.00;98237.22;5081185;28;20114;-76
2021/10/04 00:23:08;;;;;;;20.45;11.60;;;;;;;7.39;100.00;98227.69;5077046;28;20043;-75
2021/10/04 00:25:34;;;;;;;24.70;11.40;;;;;;;7.50;100.00;98229.94;5072090;28;20041;-75
2021/10/04 00:28:00;;;;;;;20.15;11.40;;;;;;;7.46;100.00;98223.88;5075245;28;20024;-75
2021/10/04 00:30:25;;;;;;;19.40;11.70;;;;;;;7.40;100.00;98232.09;5089698;28;20082;-75
2021/10/04 00:32:53;;;;;;;21.30;11.50;;;;;;;7.36;100.00;98224.25;5077101;28;20060;-76
2021/10/04 00:35:22;;;;;;;26.10;11.93;;;;;;;7.30;100.00;98227.16;5081094;28;20024;-76
2021/10/04 00:37:48;;;;;;;24.02;11.07;;;;;;;7.22;100.00;98247.88;5098609;28;20031;-76
2021/10/04 00:40:19;;;;;;;19.45;10.90;;;;;;;7.16;100.00;98235.69;5096771;28;20028;-76
2021/10/04 00:42:44;;;;;;;19.13;11.38;;;;;;;6.98;100.00;98223.91;5077867;28;20045;-76
2021/10/04 00:45:11;;;;;;;19.80;10.30;;;;;;;6.98;100.00;98233.69;5076807;28;20040;-75
2021/10/04 00:47:38;;;;;;;15.35;9.52;;;;;;;6.97;100.00;98235.50;5076981;28;20037;-75
2021/10/04 00:50:05;;;;;;;16.60;9.95;;;;;;;6.85;100.00;98235.94;5076423;28;20036;-75
2021/10/04 00:52:31;;;;;;;17.15;10.60;;;;;;;6.78;100.00;98225.56;5075782;28;20559;-75
2021/10/04 00:54:56;;;;;;;20.83;11.25;;;;;;;6.82;100.00;98236.06;5076562;28;20052;-76
2021/10/04 00:57:22;;;;;;;20.38;11.10;;;;;;;6.66;100.00;98218.03;5083527;28;20028;-76
2021/10/04 00:59:47;;;;;;;22.42;11.00;;;;;;;6.61;100.00;98210.22;5095922;28;20410;-76
2021/10/04 01:02:13;;;;;;;18.13;10.85;;;;;;;6.65;100.00;98218.94;5095633;28;20031;-76
2021/10/04 01:04:39;;;;;;;23.38;11.00;;;;;;;6.57;100.00;98208.59;5095415;28;20411;-76
2021/10/04 01:07:05;;;;;;;19.08;10.77;;;;;;;6.65;100.00;98221.59;5096414;28;20055;-76
2021/10/04 01:12:52;;;;;;;23.02;10.35;;;;;;;6.58;100.00;98213.00;5096495;28;20526;-76
2021/10/04 01:15:19;;;;;;;19.48;10.43;;;;;;;6.48;100.00;98215.13;5094041;28;20040;-76
2021/10/04 01:17:45;;;;;;;18.60;11.02;;;;;;;6.52;100.00;98210.56;5076718;28;20352;-76
2021/10/04 01:23:32;;;;;;;18.48;10.52;;;;;;;6.45;100.00;98209.03;5095035;28;20043;-76
2021/10/04 01:25:58;;;;;;;21.77;10.82;;;;;;;6.35;100.00;98203.16;5090745;28;20036;-76
2021/10/04 01:28:25;;;;;;;25.10;11.25;;;;;;;6.29;100.00;98205.16;5088200;28;20048;-76
2021/10/04 01:30:51;;;;;;;22.33;11.32;;;;;;;6.31;100.00;98200.66;5077748;28;20039;-76
2021/10/04 01:33:17;;;;;;;21.55;10.82;;;;;;;6.43;100.00;98210.84;5087945;28;20012;-76
2021/10/04 01:35:42;;;;;;;23.45;10.88;;;;;;;6.41;100.00;98208.28;5096525;28;20081;-76
2021/10/04 01:38:08;;;;;;;22.00;10.93;;;;;;;6.48;100.00;98211.59;5096079;28;20016;-76
2021/10/04 01:40:34;;;;;;;19.15;10.55;;;;;;;6.36;100.00;98215.53;5079941;28;20028;-76
2021/10/04 01:43:01;;;;;;;17.80;9.60;;;;;;;6.29;100.00;98198.06;5077366;28;20079;-76
2021/10/04 01:45:28;;;;;;;20.42;9.77;;;;;;;6.38;100.00;98216.34;5058769;28;20410;-76
2021/10/04 01:47:58;;;;;;;18.80;10.07;;;;;;;6.26;100.00;98203.50;5088050;28;20036;-76
2021/10/04 01:50:24;;;;;;;14.00;8.73;;;;;;;6.22;100.00;98204.50;5096959;28;20185;-76
2021/10/04 01:52:50;;;;;;;18.63;9.13;;;;;;;6.11;100.00;98195.16;5087380;28;20060;-76
2021/10/04 01:55:16;;;;;;;14.50;9.07;;;;;;;6.11;100.00;98208.44;5083847;28;20024;-76
2021/10/04 01:57:42;;;;;;;14.32;8.90;;;;;;;6.19;100.00;98214.34;5082864;28;20486;-76
2021/10/04 02:00:11;;;;;;;15.85;9.15;;;;;;;6.22;100.00;98216.91;5089932;28;20505;-76
2021/10/04 02:02:37;;;;;;;14.38;8.68;;;;;;;6.16;100.00;98207.38;5094381;28;20039;-76
2021/10/04 02:05:05;;;;;;;17.65;9.23;;;;;;;6.26;100.00;98215.91;5084269;28;20411;-76
2021/10/04 02:07:30;;;;;;;20.48;10.40;;;;;;;6.28;100.00;98219.34;5079212;28;20032;-76
2021/10/04 02:09:57;;;;;;;17.17;9.43;;;;;;;6.25;100.00;98206.19;5095264;28;20046;-75
2021/10/04 02:12:22;;;;;;;28.10;13.90;;;;;;;6.22;100.00;98195.66;5093771;28;20542;-76
2021/10/04 02:14:48;;;;;;;23.52;12.20;;;;;;;6.29;100.00;98208.69;5077086;28;20034;-76
2021/10/04 02:17:13;;;;;;;20.17;9.77;;;;;;;6.27;100.00;98209.66;5076965;28;20455;-76
2021/10/04 02:19:39;;;;;;;29.63;11.15;;;;;;;6.15;100.00;98204.78;5077914;28;20438;-76
2021/10/04 02:22:05;;;;;;;17.92;10.45;;;;;;;6.25;100.00;98215.03;5070689;28;20521;-76
2021/10/04 02:24:30;;;;;;;19.75;9.98;;;;;;;6.32;100.00;98218.34;5067750;28;20386;-76
2021/10/04 02:26:56;;;;;;;22.40;10.80;;;;;;;6.34;100.00;98219.16;5092844;28;20111;-76
2021/10/04 02:29:22;;;;;;;25.00;11.60;;;;;;;6.27;100.00;98209.66;5075607;28;20112;-76
2021/10/04 02:31:48;;;;;;;19.20;11.50;;;;;;;6.31;100.00;98217.47;5078381;28;20020;-75
2021/10/04 02:34:14;;;;;;;20.35;11.02;;;;;;;6.33;100.00;98209.47;5065412;28;20411;-76
2021/10/04 02:36:39;;;;;;;21.55;11.18;;;;;;;6.36;100.00;98214.66;5061674;28;20036;-76
2021/10/04 02:39:05;;;;;;;25.40;11.82;;;;;;;6.40;100.00;98216.28;5093996;28;20553;-76
2021/10/04 02:41:31;;;;;;;31.55;10.88;;;;;;;6.42;100.00;98225.09;5095526;28;20055;-75
2021/10/04 02:43:56;;;;;;;26.08;12.18;;;;;;;6.40;100.00;98222.47;5079562;28;20125;-76
2021/10/04 02:46:22;;;;;;;24.05;12.18;;;;;;;6.37;100.00;98227.88;5076772;28;20097;-76
2021/10/04 02:48:48;;;;;;;29.52;12.15;;;;;;;6.26;100.00;98213.25;5096972;28;20031;-76
2021/10/04 02:51:13;;;;;;;22.38;12.38;;;;;;;6.27;100.00;98207.88;5095568;28;20020;-76
2021/10/04 02:53:39;;;;;;;27.88;12.45;;;;;;;6.33;100.00;98228.06;5078332;28;20052;-75
2021/10/04 02:56:05;;;;;;;32.95;15.10;;;;;;;6.14;100.00;98213.66;5088079;28;20484;-76
2021/10/04 02:58:31;;;;;;;40.17;17.90;;;;;;;6.04;100.00;98225.50;5074682;28;20085;-76
2021/10/04 03:00:56;;;;;;;47.10;20.05;;;;;;;5.95;100.00;98203.66;5075094;28;20020;-76
2021/10/04 03:03:22;;;;;;;32.25;16.35;;;;;;;5.94;100.00;98212.53;5074602;28;20017;-76
2021/10/04 03:05:48;;;;;;;23.30;12.63;;;;;;;5.76;100.00;98207.78;5058353;28;20040;-75
2021/10/04 03:08:13;;;;;;;21.55;12.10;;;;;;;5.62;100.00;98193.22;5074411;28;20483;-76
2021/10/04 03:10:40;;;;;;;23.48;13.07;;;;;;;5.71;100.00;98235.41;5058112;28;20503;-76
2021/10/04 03:13:06;;;;;;;21.90;11.88;;;;;;;5.71;100.00;98230.09;5074414;28;20475;-76
2021/10/04 03:15:31;;;;;;;22.42;10.20;;;;;;;5.58;100.00;98226.06;5073927;28;20028;-76
2021/10/04 03:17:57;;;;;;;18.83;10.25;;;;;;;5.63;100.00;98227.66;5057602;28;20085;-76
2021/10/04 03:20:23;;;;;;;18.60;10.05;;;;;;;5.47;100.00;98221.13;5076645;28;20024;-75
2021/10/04 03:22:48;;;;;;;27.05;11.70;;;;;;;5.44;100.00;98218.56;5072378;28;20024;-75
2021/10/04 03:25:14;;;;;;;24.35;11.10;;;;;;;5.55;100.00;98234.13;5074103;28;20035;-76
2021/10/04 03:27:40;;;;;;;34.38;10.32;;;;;;;5.38;100.00;98216.94;5095195;28;20107;-75
2021/10/04 03:30:06;;;;;;;25.20;10.98;;;;;;;5.47;100.00;98223.78;5094414;28;20483;-76
2021/10/04 03:32:31;;;;;;;29.10;10.77;;;;;;;5.46;100.00;98222.03;5086957;28;20053;-76
2021/10/04 03:34:57;;;;;;;25.40;10.88;;;;;;;5.44;100.00;98223.88;5090101;28;20021;-76
2021/10/04 03:37:25;;;;;;;21.95;10.68;;;;;;;5.47;100.00;98221.13;5092585;28;20035;-76
2021/10/04 03:39:51;;;;;;;24.13;11.70;;;;;;;5.49;100.00;98229.88;5097111;28;20093;-76
2021/10/04 03:42:16;;;;;;;28.13;10.77;;;;;;;5.36;100.00;98221.44;5095924;28;20063;-76
2021/10/04 03:44:42;;;;;;;20.63;10.30;;;;;;;5.41;100.00;98224.81;5085625;28;20483;-76
2021/10/04 03:47:08;;;;;;;19.65;10.18;;;;;;;5.43;100.00;98230.06;5090803;28;20093;-76
2021/10/04 03:49:33;;;;;;;21.35;10.68;;;;;;;5.37;100.00;98219.66;5088022;28;20085;-76
2021/10/04 03:51:59;;;;;;;18.58;9.15;;;;;;;5.30;100.00;98223.41;5075456;28;20052;-76
2021/10/04 03:54:24;;;;;;;17.17;9.38;;;;;;;5.26;100.00;98216.47;5034841;28;20037;-75
2021/10/04 03:56:50;;;;;;;23.80;9.85;;;;;;;5.28;100.00;98211.97;5057983;28;20029;-76
2021/10/04 03:59:15;;;;;;;20.42;10.32;;;;;;;5.34;100.00;98233.00;5076335;28;20024;-76
2021/10/04 04:01:41;;;;;;;16.50;9.05;;;;;;;5.30;100.00;98218.09;5061632;28;20202;-76
2021/10/04 04:04:06;;;;;;;18.10;9.25;;;;;;;5.28;100.00;98225.25;5054216;28;20025;-77
2021/10/04 04:06:32;;;;;;;15.48;8.55;;;;;;;5.28;100.00;98226.13;5061021;28;20060;-76
2021/10/04 04:08:58;;;;;;;21.92;10.48;;;;;;;5.32;100.00;98232.19;5061552;28;20025;-76
2021/10/04 04:11:24;;;;;;;22.45;10.18;;;;;;;5.18;100.00;98202.56;5053287;28;20029;-77
2021/10/04 04:13:50;;;;;;;17.92;9.93;;;;;;;5.23;100.00;98228.00;5053619;28;20075;-76
2021/10/04 04:16:15;;;;;;;20.15;10.77;;;;;;;5.32;100.00;98233.03;5052997;28;20021;-75
2021/10/04 04:18:41;;;;;;;18.88;10.55;;;;;;;5.49;100.00;98248.47;5053044;28;20033;-76
2021/10/04 04:21:06;;;;;;;19.08;9.38;;;;;;;5.41;100.00;98238.06;5073097;28;20491;-76
2021/10/04 04:23:32;;;;;;;14.50;8.65;;;;;;;5.47;100.00;98252.94;5072851;28;20481;-77
2021/10/04 04:25:58;;;;;;;17.25;9.63;;;;;;;5.27;100.00;98234.09;5066234;28;20021;-76
2021/10/04 04:28:24;;;;;;;20.77;10.18;;;;;;;5.45;100.00;98254.75;5052879;28;20438;-77
2021/10/04 04:30:50;;;;;;;24.25;10.07;;;;;;;5.30;100.00;98236.66;5052732;28;20121;-76
2021/10/04 04:33:15;;;;;;;25.73;11.30;;;;;;;5.42;100.00;98260.16;5052658;28;20064;-76
2021/10/04 04:35:41;;;;;;;27.02;12.35;;;;;;;5.43;100.00;98256.59;5053988;28;20039;-76
2021/10/04 04:38:07;;;;;;;32.45;13.95;;;;;;;5.37;100.00;98235.56;5053561;28;20040;-77
2021/10/04 04:40:32;;;;;;;36.38;16.52;;;;;;;5.46;100.00;98249.44;5069189;28;20028;-77
2021/10/04 04:42:58;;;;;;;35.78;16.20;;;;;;;5.58;100.00;98256.13;5064556;28;20059;-76
2021/10/04 04:45:24;;;;;;;33.25;14.10;;;;;;;5.39;100.00;98244.34;5066513;28;20025;-76
2021/10/04 04:47:50;;;;;;;33.00;12.93;;;;;;;5.53;100.00;98255.41;5074318;28;20064;-76
2021/10/04 04:50:18;;;;;;;35.55;11.63;;;;;;;5.53;100.00;98244.81;5074506;28;20063;-77
2021/10/04 04:52:44;;;;;;;27.33;12.65;;;;;;;5.66;100.00;98270.03;5065773;28;20024;-76
2021/10/04 04:55:09;;;;;;;28.27;14.52;;;;;;;5.62;100.00;98249.81;5065965;28;20027;-76
2021/10/04 04:57:35;;;;;;;31.83;12.77;;;;;;;5.80;100.00;98278.44;5078811;28;20089;-74
2021/10/04 05:00:03;;;;;;;29.95;11.93;;;;;;;5.89;100.00;98267.56;5049669;28;20089;-74
2021/10/04 05:02:33;;;;;;;30.77;12.73;;;;;;;6.84;100.00;98281.19;5064021;28;20023;-74
2021/10/04 05:04:59;;;;;;;18.30;9.07;;;;;;;7.83;95.07;98279.22;5061160;28;20400;-74
2021/10/04 05:07:24;;;;;;;27.45;10.80;;;;;;;8.76;88.30;98281.59;5064094;28;20017;-74
2021/10/04 05:09:50;;;;;;;24.38;10.90;;;;;;;9.58;81.67;98257.41;5038727;28;20032;-75
2021/10/04 05:12:15;;;;;;;25.23;10.50;;;;;;;10.23;77.20;98264.97;5043001;28;20027;-74
2021/10/04 05:14:41;;;;;;;20.10;10.10;;;;;;;10.66;75.02;98289.59;5064945;28;20058;-75
2021/10/04 05:17:06;;;;;;;21.13;10.05;;;;;;;11.26;72.33;98283.72;5067401;28;20020;-75
2021/10/04 05:19:32;;;;;;;25.80;11.27;;;;;;;11.85;68.51;98283.22;5065774;28;20025;-74
2021/10/04 05:21:57;;;;;;;44.10;13.55;;;;;;;12.32;65.52;98271.63;5051772;28;20017;-75
2021/10/04 05:24:23;;;;;;;26.98;11.18;;;;;;;12.99;63.36;98273.91;5058561;28;20029;-75
2021/10/04 05:26:48;;;;;;;20.08;9.00;;;;;;;13.65;60.81;98278.84;5065425;28;20017;-75
2021/10/04 05:29:14;;;;;;;32.17;9.55;;;;;;;14.12;56.96;98260.53;5035237;28;20574;-75
2021/10/04 05:31:39;;;;;;;18.90;9.27;;;;;;;14.50;55.46;98264.31;5033920;28;20120;-75
2021/10/04 05:34:05;;;;;;;26.63;9.43;;;;;;;15.41;53.83;98257.19;5050050;28;20083;-75
2021/10/04 05:36:31;;;;;;;20.35;10.10;;;;;;;16.02;51.52;98259.13;5051549;28;20086;-75
2021/10/04 05:38:58;;;;;;;28.95;10.52;;;;;;;16.24;50.99;98276.31;5065912;28;20488;-73
2021/10/04 05:41:23;;;;;;;32.53;10.25;;;;;;;16.40;50.52;98272.50;5044871;28;20044;-73
2021/10/04 05:43:49;;;;;;;34.25;10.63;;;;;;;16.51;50.06;98284.25;5061933;28;20020;-74
2021/10/04 05:46:14;;;;;;;34.75;10.43;;;;;;;16.92;49.22;98283.03;5052130;28;20036;-74
2021/10/04 05:48:40;;;;;;;21.63;10.00;;;;;;;17.57;47.27;98268.00;5055158;28;20102;-74
2021/10/04 05:51:06;;;;;;;20.42;10.02;;;;;;;18.05;46.34;98265.94;5069884;28;20028;-78
2021/10/04 05:53:33;;;;;;;26.20;10.45;;;;;;;18.11;45.82;98256.47;5041502;28;20025;-74
2021/10/04 05:55:58;;;;;;;35.97;12.05;;;;;;;18.22;45.78;98261.84;5057222;28;20491;-75
2021/10/04 05:58:24;;;;;;;26.95;11.55;;;;;;;18.20;45.29;98253.00;5067464;28;20033;-75
2021/10/04 06:00:50;;;;;;;23.00;11.82;;;;;;;18.54;44.77;98262.84;5065279;28;20031;-74
2021/10/04 06:03:16;;;;;;;27.65;11.85;;;;;;;19.08;43.99;98272.72;5069334;28;20021;-75
2021/10/04 06:05:41;;;;;;;29.38;12.73;;;;;;;18.85;44.47;98267.41;5070924;28;20373;-74
2021/10/04 06:08:07;;;;;;;24.52;12.48;;;;;;;19.56;42.76;98274.00;5070808;28;20021;-75
2021/10/04 06:10:32;;;;;;;34.63;14.40;;;;;;;19.82;42.28;98269.88;5069499;28;20024;-75
2021/10/04 06:12:58;;;;;;;38.80;15.18;;;;;;;19.50;42.77;98266.41;5037368;28;20016;-74
2021/10/04 06:15:24;;;;;;;34.30;15.95;;;;;;;19.68;42.35;98258.50;5059615;28;20086;-74
2021/10/04 06:17:49;;;;;;;49.17;14.38;;;;;;;19.79;42.49;98285.56;5070912;28;20476;-73
2021/10/04 06:20:16;;;;;;;31.73;15.38;;;;;;;19.64;42.95;98276.91;5069549;28;20117;-73
2021/10/04 06:22:41;;;;;;;36.95;17.88;;;;;;;19.79;42.67;98286.44;5052891;28;20075;-74
2021/10/04 06:25:10;;;;;;;44.90;18.30;;;;;;;20.13;41.72;98288.88;5053895;28;20546;-74
2021/10/04 06:27:36;;;;;;;42.55;19.05;;;;;;;20.31;41.49;98287.28;5069478;28;20027;-74
2021/10/04 06:30:04;;;;;;;54.20;21.45;;;;;;;20.13;41.82;98294.31;5069654;28;20013;-75
2021/10/04 06:32:29;;;;;;;51.75;26.00;;;;;;;20.17;41.63;98301.22;5052540;28;20023;-74
2021/10/04 06:34:55;;;;;;;57.15;28.40;;;;;;;19.10;43.06;98297.91;5069428;28;20029;-75
2021/10/04 06:37:20;;;;;;;48.83;27.38;;;;;;;19.25;43.56;98293.88;5070492;28;20032;-75
2021/10/04 06:39:46;;;;;;;40.53;23.58;;;;;;;20.35;41.93;98299.59;5070737;28;20024;-74
2021/10/04 06:42:11;;;;;;;39.20;21.83;;;;;;;20.17;42.11;98299.34;5052362;28;20082;-75
2021/10/04 06:44:37;;;;;;;32.97;19.88;;;;;;;20.48;41.10;98300.22;5070386;28;20025;-74
2021/10/04 06:47:03;;;;;;;38.95;20.90;;;;;;;20.45;41.40;98305.94;5069457;28;20025;-75
2021/10/04 06:49:29;;;;;;;37.53;18.70;;;;;;;20.79;41.51;98312.78;5052501;28;20115;-75
2021/10/04 06:51:54;;;;;;;41.83;14.95;;;;;;;21.05;40.63;98302.19;5069268;28;20075;-74
2021/10/04 06:54:20;;;;;;;49.50;15.27;;;;;;;21.16;40.69;98302.13;5069318;28;20491;-75
2021/10/04 06:56:45;;;;;;;34.70;15.57;;;;;;;21.65;39.90;98292.06;5069356;28;20392;-75
2021/10/04 06:59:11;;;;;;;33.42;14.20;;;;;;;21.66;39.81;98281.00;5061192;28;20488;-74
2021/10/04 07:01:37;;;;;;;22.92;13.57;;;;;;;22.54;38.50;98280.59;5070256;28;20381;-74
2021/10/04 07:04:04;;;;;;;22.90;15.13;;;;;;;22.17;38.58;98280.63;5070698;28;20103;-74
2021/10/04 07:06:30;;;;;;;31.73;14.65;;;;;;;22.98;37.55;98274.28;5068930;28;20056;-75
2021/10/04 07:08:56;;;;;;;33.70;19.58;;;;;;;23.42;36.90;98272.53;5069264;28;20089;-75
2021/10/04 07:11:22;;;;;;;32.63;18.20;;;;;;;23.33;36.42;98265.25;5061221;28;20443;-74
2021/10/04 07:13:49;;;;;;;40.00;19.30;;;;;;;23.06;37.41;98287.19;5060544;28;20032;-75
2021/10/04 07:16:15;;;;;;;35.47;20.27;;;;;;;23.94;36.17;98288.97;5069175;28;20082;-74
2021/10/04 07:18:41;;;;;;;39.55;21.88;;;;;;;23.50;36.45;98279.97;5052146;28;20060;-74
2021/10/04 07:21:08;;;;;;;33.92;19.30;;;;;;;23.31;37.07;98285.53;5068940;28;20468;-74
2021/10/04 07:23:34;;;;;;;41.60;18.23;;;;;;;23.82;36.49;98279.34;5069450;28;20112;-75
2021/10/04 07:26:00;;;;;;;47.45;20.70;;;;;;;23.63;36.67;98283.97;5059947;28;20048;-74
2021/10/04 07:28:25;;;;;;;29.30;17.33;;;;;;;24.02;36.24;98281.72;5044443;28;20419;-75
2021/10/04 07:30:51;;;;;;;31.38;17.65;;;;;;;24.26;35.57;98284.63;5065392;28;20075;-75
2021/10/04 07:33:17;;;;;;;31.25;17.10;;;;;;;24.56;35.20;98274.16;5073769;28;20027;-75
2021/10/04 07:35:43;;;;;;;36.08;17.42;;;;;;;24.01;36.50;98279.13;5055511;28;20036;-75
2021/10/04 07:38:08;;;;;;;37.38;16.35;;;;;;;25.20;34.44;98263.41;5060245;28;20036;-75
2021/10/04 07:40:34;;;;;;;27.52;14.95;;;;;;;25.34;34.06;98261.91;5053467;28;20032;-75
2021/10/04 07:42:59;;;;;;;20.90;13.07;;;;;;;25.41;33.72;98264.81;5053551;28;20492;-74
2021/10/04 07:45:25;;;;;;;26.90;12.23;;;;;;;25.87;33.06;98256.75;5053873;28;20028;-75
2021/10/04 07:47:51;;;;;;;24.83;12.57;;;;;;;26.23;32.71;98262.75;5052312;28;20036;-75
2021/10/04 07:50:17;;;;;;;17.27;11.13;;;;;;;26.63;32.00;98247.16;5053594;28;20036;-75
2021/10/04 07:52:44;;;;;;;22.52;10.50;;;;;;;26.46;31.94;98256.47;5035581;28;20037;-76
2021/10/04 07:55:10;;;;;;;27.15;10.48;;;;;;;25.92;32.67;98255.41;5035566;28;20463;-75
2021/10/04 07:57:35;;;;;;;15.63;9.75;;;;;;;25.75;33.26;98249.91;5060824;28;20032;-75
2021/10/04 08:00:02;;;;;;;14.63;7.18;;;;;;;25.23;33.61;98254.84;5072262;28;20020;-75
2021/10/04 08:02:27;;;;;;;19.30;7.00;;;;;;;25.87;32.52;98234.00;5073400;28;20036;-75
2021/10/04 08:04:53;;;;;;;29.45;7.90;;;;;;;26.05;32.33;98242.88;5071885;28;20093;-75
2021/10/04 08:07:19;;;;;;;13.95;6.95;;;;;;;26.74;31.55;98253.09;5071932;28;20468;-75
2021/10/04 08:09:44;;;;;;;9.25;6.57;;;;;;;26.97;30.92;98244.94;5071533;28;20040;-75
2021/10/04 08:12:10;;;;;;;12.48;7.07;;;;;;;26.95;30.76;98229.69;5071930;28;20364;-74
2021/10/04 08:14:36;;;;;;;14.38;7.80;;;;;;;26.59;31.11;98235.66;5073499;28;20043;-74
2021/10/04 08:17:02;;;;;;;12.98;7.10;;;;;;;26.92;30.68;98211.66;5071694;28;20064;-74
2021/10/04 08:19:28;;;;;;;13.48;7.32;;;;;;;27.30;30.06;98235.44;5071704;28;20075;-75
2021/10/04 08:21:54;;;;;;;18.70;8.68;;;;;;;28.34;29.68;98227.25;5063237;28;20056;-75
2021/10/04 08:24:20;;;;;;;14.07;8.15;;;;;;;29.85;27.40;98206.97;5071708;28;20032;-75
2021/10/04 08:26:46;;;;;;;14.77;8.80;;;;;;;30.78;26.23;98213.91;5053788;28;20071;-75
2021/10/04 08:29:13;;;;;;;17.83;7.43;;;;;;;31.02;25.73;98216.16;5064459;28;20059;-75
2021/10/04 08:31:39;;;;;;;18.77;7.90;;;;;;;30.44;26.34;98210.16;5054572;28;20028;-75
2021/10/04 08:34:05;;;;;;;14.95;7.85;;;;;;;30.45;26.17;98211.00;5051206;28;20539;-75
2021/10/04 08:36:34;;;;;;;27.52;8.30;;;;;;;31.25;25.38;98202.84;5050646;28;20097;-76
2021/10/04 08:39:02;;;;;;;10.55;6.35;;;;;;;31.23;25.11;98199.41;5051366;28;20086;-74
2021/10/04 08:41:29;;;;;;;16.15;7.13;;;;;;;31.40;25.10;98203.50;5057624;28;20071;-75
2021/10/04 08:43:55;;;;;;;11.60;5.55;;;;;;;29.37;26.81;98205.88;5054121;28;20037;-75
2021/10/04 08:46:21;;;;;;;11.70;4.75;;;;;;;27.85;27.77;98206.78;5064880;28;20055;-75
2021/10/04 08:48:48;;;;;;;8.02;4.80;;;;;;;28.31;27.78;98200.09;5070557;28;20121;-75
2021/10/04 08:51:14;;;;;;;16.95;5.57;;;;;;;28.86;27.27;98190.44;5051218;28;20424;-74
2021/10/04 08:53:40;;;;;;;14.20;5.55;;;;;;;29.72;26.79;98192.19;5058879;28;20495;-74
2021/10/04 08:56:06;;;;;;;15.70;6.00;;;;;;;30.39;25.77;98179.53;5070901;28;20047;-75
2021/10/04 08:58:32;;;;;;;9.50;5.15;;;;;;;29.61;26.53;98190.81;5071046;28;20032;-74
2021/10/04 09:01:01;;;;;;;12.80;5.47;;;;;;;30.23;25.91;98195.53;5053779;28;20044;-74
2021/10/04 09:03:27;;;;;;;16.92;4.80;;;;;;;30.01;25.70;98181.81;5050892;28;20028;-74
2021/10/04 09:05:56;;;;;;;14.68;5.60;;;;;;;29.97;26.12;98187.94;5043252;28;20102;-75
2021/10/04 09:08:22;;;;;;;16.67;4.65;;;;;;;30.17;25.53;98188.94;5054268;28;20558;-74
2021/10/04 09:10:55;;;;;;;13.32;4.35;;;;;;;30.90;24.71;98170.81;5070802;28;20032;-74
2021/10/04 09:13:21;;;;;;;10.25;3.63;;;;;;;30.80;24.77;98164.81;5058371;28;20017;-74
2021/10/04 09:15:50;;;;;;;15.07;4.25;;;;;;;30.08;25.85;98165.31;5051728;28;20083;-74
2021/10/04 09:18:15;;;;;;;8.27;3.88;;;;;;;30.39;25.50;98164.88;5051802;28;20029;-76
2021/10/04 09:21:00;;;;;;;12.50;3.92;;;;;;;30.25;25.44;98160.28;5058899;28;20043;-74
2021/10/04 09:23:45;;;;;;;9.73;3.50;;;;;;;31.64;24.15;98152.25;5070416;28;20024;-75
2021/10/04 09:26:34;;;;;;;10.60;3.90;;;;;;;33.01;22.88;98145.44;5071430;28;20051;-75
2021/10/04 09:29:11;;;;;;;13.07;3.50;;;;;;;32.59;22.89;98146.97;5069580;28;20025;-75
2021/10/04 09:31:41;;;;;;;13.50;3.67;;;;;;;33.50;22.60;98139.16;5033697;28;20031;-75
2021/10/04 09:34:14;;;;;;;7.32;3.85;;;;;;;34.07;21.99;98139.94;5050559;28;20029;-75
2021/10/04 09:36:45;;;;;;;8.27;3.67;;;;;;;34.39;21.32;98122.09;5061991;28;20029;-75
2021/10/04 09:39:29;;;;;;;12.63;3.92;;;;;;;33.48;22.81;98126.59;5070151;28;20054;-74
2021/10/04 09:42:14;;;;;;;12.88;3.92;;;;;;;30.31;25.40;98131.84;5069630;28;20512;-74
2021/10/04 09:44:41;;;;;;;10.88;3.83;;;;;;;29.66;26.21;98126.75;5049914;28;20021;-74
2021/10/04 09:47:10;;;;;;;20.33;3.63;;;;;;;31.33;24.64;98133.47;5050938;28;20021;-74
2021/10/04 09:49:51;;;;;;;8.82;4.15;;;;;;;31.93;23.90;98126.03;5059511;28;20047;-75
2021/10/04 09:52:17;;;;;;;;;;;;;;;32.23;23.14;98127.25;5051587;28;20017;-74
2021/10/04 09:54:44;;;;;;;9.57;3.20;;;;;;;32.87;22.45;98116.13;5049973;28;19985;-74
2021/10/04 09:57:21;;;;;;;5.00;3.17;;;;;;;34.39;20.96;98118.47;5049721;28;20112;-76
2021/10/04 09:59:48;;;;;;;12.15;3.83;;;;;;;34.64;21.16;98108.94;5064750;28;20516;-74
2021/10/04 10:02:16;;;;;;;7.30;3.22;;;;;;;35.30;20.03;98102.47;5067601;28;20111;-76
2021/10/04 10:04:47;;;;;;;7.68;3.90;;;;;;;35.47;20.11;98099.84;5049519;28;20594;-75
2021/10/04 10:07:13;;;;;;;6.82;3.70;;;;;;;34.65;20.46;98099.53;5056830;28;20024;-75
2021/10/04 10:09:42;;;;;;;4.63;3.85;;;;;;;33.41;21.43;98098.88;5069526;28;20475;-75
2021/10/04 10:12:08;;;;;;;11.73;3.70;;;;;;;33.18;22.19;98084.78;5062540;28;20110;-74
2021/10/04 10:14:43;;;;;;;8.20;3.17;;;;;;;33.40;21.30;98094.44;5069577;28;20032;-74
2021/10/04 10:17:23;;;;;;;8.02;3.75;;;;;;;34.07;20.40;98076.06;5069629;28;20077;-75
2021/10/04 10:19:53;;;;;;;9.02;3.30;;;;;;;33.87;20.41;98081.81;5053405;28;20029;-74
2021/10/04 10:22:19;;;;;;;7.00;3.38;;;;;;;34.52;19.65;98071.88;5069204;28;20074;-74
2021/10/04 10:24:46;;;;;;;4.72;3.40;;;;;;;34.77;19.62;98072.63;5046130;28;20028;-74
2021/10/04 10:27:14;;;;;;;10.20;3.58;;;;;;;33.66;20.61;98069.22;5057376;28;20476;-75
2021/10/04 10:29:41;;;;;;;9.35;3.63;;;;;;;33.69;20.56;98062.38;5065357;28;20032;-75
2021/10/04 10:32:09;;;;;;;4.43;3.50;;;;;;;34.19;20.56;98079.78;5069229;28;20028;-74
2021/10/04 10:34:35;;;;;;;4.00;3.35;;;;;;;34.38;20.28;98070.38;5051320;28;20089;-73
2021/10/04 10:37:24;;;;;;;6.85;3.47;;;;;;;34.70;19.86;98060.75;5070061;28;20509;-74
2021/10/04 10:39:53;;;;;;;21.83;4.30;;;;;;;35.06;19.15;98057.00;5053882;28;20081;-74
2021/10/04 10:42:32;;;;;;;6.20;3.40;;;;;;;34.59;19.36;98050.44;5048996;28;20420;-73
2021/10/04 10:44:58;;;;;;;6.97;3.35;;;;;;;34.51;19.41;98050.75;5057639;28;20070;-74
2021/10/04 10:47:35;;;;;;;9.95;3.20;;;;;;;35.94;18.25;98047.78;5070191;28;20048;-74
2021/10/04 10:50:01;;;;;;;6.43;3.53;;;;;;;37.06;17.32;98035.97;5061902;28;20095;-74
2021/10/04 10:52:31;;;;;;;6.03;3.50;;;;;;;37.49;17.03;98034.47;5050616;28;20112;-74
2021/10/04 10:54:58;;;;;;;25.95;4.60;;;;;;;37.49;17.27;98028.88;5049255;28;20033;-75
2021/10/04 10:57:49;;;;;;;7.60;3.30;;;;;;;36.92;17.78;98034.53;5068778;28;20029;-75
2021/10/04 11:00:17;;;;;;;7.22;3.35;;;;;;;36.52;17.93;98028.19;5073577;28;20085;-75
2021/10/04 11:03:06;;;;;;;14.02;3.17;;;;;;;36.34;17.91;98031.97;5073174;28;20047;-74
2021/10/04 11:05:37;;;;;;;5.68;2.83;;;;;;;37.07;17.36;98031.22;5074060;28;20094;-74
2021/10/04 11:08:08;;;;;;;14.13;3.28;;;;;;;37.03;17.55;98019.72;5054457;28;20064;-74
2021/10/04 11:10:34;;;;;;;;;;;;;;;35.57;18.25;98022.09;5054815;28;20066;-75
2021/10/04 11:13:09;;;;;;;5.28;3.00;;;;;;;35.59;18.45;98029.19;5060587;28;20078;-75
2021/10/04 11:15:39;;;;;;;8.88;3.38;;;;;;;35.56;18.58;98017.66;5054323;28;20033;-76
2021/10/04 11:18:07;;;;;;;5.43;3.28;;;;;;;35.99;18.57;98012.56;5061232;28;20438;-75
2021/10/04 11:20:33;;;;;;;4.85;3.13;;;;;;;37.26;17.84;98018.69;5041434;28;20097;-74
2021/10/04 11:23:24;;;;;;;9.93;3.28;;;;;;;37.00;17.48;98011.00;5072541;28;20048;-74
2021/10/04 11:25:54;;;;;;;6.40;2.97;;;;;;;37.06;17.57;98005.25;5071328;28;20076;-74
2021/10/04 11:28:37;;;;;;;5.78;3.13;;;;;;;37.30;17.29;98008.72;5052579;28;20461;-74